createdAt,value
2022-10-22T00:00:21.084Z,15.35
2022-10-22T00:01:21.091Z,15.34
2022-10-22T00:02:21.136Z,15.39
2022-10-22T00:03:21.150Z,15.35
2022-10-22T00:04:21.087Z,15.34
2022-10-22T00:05:21.096Z,15.36
2022-10-22T00:06:21.099Z,15.31
2022-10-22T00:07:21.104Z,15.43
2022-10-22T00:08:21.210Z,15.44
2022-10-22T00:09:21.115Z,15.34
2022-10-22T00:10:21.085Z,15.34
2022-10-22T00:11:21.105Z,15.35
2022-10-22T00:12:21.095Z,15.35
2022-10-22T00:13:21.130Z,15.35
2022-10-22T00:14:21.114Z,15.36
2022-10-22T00:15:21.130Z,15.29
2022-10-22T00:16:21.090Z,15.31
2022-10-22T00:17:21.112Z,15.38
2022-10-22T00:18:21.099Z,15.35
2022-10-22T00:19:21.086Z,15.36
2022-10-22T00:20:21.100Z,15.27
2022-10-22T00:21:21.102Z,15.32
2022-10-22T00:22:21.127Z,15.32
2022-10-22T00:23:21.101Z,15.34
2022-10-22T00:24:21.131Z,15.35
2022-10-22T00:25:21.107Z,15.38
2022-10-22T00:26:21.105Z,15.34
2022-10-22T00:27:21.113Z,15.32
2022-10-22T00:28:21.110Z,15.35
2022-10-22T00:29:21.121Z,15.35
2022-10-22T00:30:21.106Z,15.35
2022-10-22T00:31:21.112Z,15.39
2022-10-22T00:32:21.126Z,15.43
2022-10-22T00:33:21.115Z,15.43
2022-10-22T00:34:21.113Z,15.32
2022-10-22T00:35:21.103Z,15.34
2022-10-22T00:36:21.106Z,15.17
2022-10-22T00:37:21.116Z,15.25
2022-10-22T00:38:21.124Z,15.28
2022-10-22T00:39:21.104Z,15.16
2022-10-22T00:40:21.115Z,15.14
2022-10-22T00:41:21.097Z,15.23
2022-10-22T00:42:21.115Z,15.19
2022-10-22T00:43:21.129Z,15.16
2022-10-22T00:44:21.103Z,15.17
2022-10-22T00:45:21.095Z,15.20
2022-10-22T00:46:21.117Z,15.19
2022-10-22T00:47:21.126Z,15.14
2022-10-22T00:48:21.117Z,15.16
2022-10-22T00:49:21.136Z,15.16
2022-10-22T00:50:21.098Z,15.16
2022-10-22T00:51:21.093Z,15.13
2022-10-22T00:52:21.107Z,15.10
2022-10-22T00:53:21.101Z,15.16
2022-10-22T00:56:12.865Z,15.16
2022-10-22T00:57:04.422Z,15.11
2022-10-22T00:58:04.410Z,15.09
2022-10-22T00:59:04.479Z,15.13
2022-10-22T01:00:04.440Z,15.09
2022-10-22T01:01:04.453Z,14.98
2022-10-22T01:02:04.436Z,15.01
2022-10-22T01:03:04.467Z,15.01
2022-10-22T01:04:04.431Z,14.98
2022-10-22T01:05:04.427Z,14.92
2022-10-22T01:06:04.449Z,14.98
2022-10-22T01:07:04.417Z,14.94
2022-10-22T01:08:04.456Z,14.98
2022-10-22T01:09:04.506Z,14.98
2022-10-22T01:10:04.432Z,15.03
2022-10-22T01:11:04.446Z,14.99
2022-10-22T01:12:04.424Z,14.99
2022-10-22T01:13:04.453Z,15.06
2022-10-22T01:14:04.436Z,14.96
2022-10-22T01:15:04.431Z,14.95
2022-10-22T01:16:04.423Z,14.98
2022-10-22T01:17:04.442Z,14.95
2022-10-22T01:18:04.443Z,14.99
2022-10-22T01:19:04.444Z,14.96
2022-10-22T01:20:04.437Z,15.01
2022-10-22T01:21:04.426Z,14.99
2022-10-22T01:22:04.435Z,14.96
2022-10-22T01:23:04.434Z,14.96
2022-10-22T01:24:04.443Z,14.96
2022-10-22T01:25:04.436Z,15.02
2022-10-22T01:26:04.446Z,15.01
2022-10-22T01:27:04.448Z,15.06
2022-10-22T01:28:04.432Z,14.95
2022-10-22T01:29:04.438Z,14.96
2022-10-22T01:30:04.451Z,14.96
2022-10-22T01:31:04.427Z,15.03
2022-10-22T01:32:04.462Z,15.03
2022-10-22T01:33:04.455Z,14.94
2022-10-22T01:34:04.429Z,15.11
2022-10-22T01:35:04.448Z,15.02
2022-10-22T01:36:04.426Z,15.01
2022-10-22T01:37:04.436Z,15.09
2022-10-22T01:38:04.457Z,15.07
2022-10-22T01:39:04.448Z,15.11
2022-10-22T01:40:04.439Z,15.11
2022-10-22T01:41:04.436Z,15.02
2022-10-22T01:42:04.447Z,15.06
2022-10-22T01:43:04.433Z,14.98
2022-10-22T01:44:04.442Z,14.99
2022-10-22T01:45:04.445Z,15.03
2022-10-22T01:46:04.432Z,15.01
2022-10-22T01:47:04.440Z,15.02
2022-10-22T01:48:04.452Z,15.01
2022-10-22T01:49:04.467Z,15.06
2022-10-22T01:50:04.435Z,15.03
2022-10-22T01:51:04.436Z,14.98
2022-10-22T01:52:04.442Z,14.98
2022-10-22T01:53:04.442Z,14.96
2022-10-22T01:54:04.451Z,15.02
2022-10-22T01:55:04.459Z,14.95
2022-10-22T01:56:04.438Z,14.95
2022-10-22T01:57:04.430Z,15.01
2022-10-22T01:58:04.429Z,15.01
2022-10-22T01:59:04.441Z,14.92
2022-10-22T02:00:04.445Z,14.96
2022-10-22T02:01:04.500Z,14.94
2022-10-22T02:02:04.444Z,14.99
2022-10-22T02:03:04.453Z,14.98
2022-10-22T02:04:04.439Z,14.98
2022-10-22T02:05:04.460Z,14.99
2022-10-22T02:06:04.441Z,14.98
2022-10-22T02:07:04.433Z,14.91
2022-10-22T02:08:04.443Z,15.01
2022-10-22T02:09:04.496Z,15.01
2022-10-22T02:10:04.444Z,14.96
2022-10-22T02:11:04.445Z,15.01
2022-10-22T02:13:04.456Z,14.88
2022-10-22T02:14:04.442Z,14.98
2022-10-22T02:15:04.477Z,14.89
2022-10-22T02:16:04.461Z,14.91
2022-10-22T02:17:04.436Z,14.99
2022-10-22T02:18:04.455Z,15.03
2022-10-22T02:19:04.433Z,14.98
2022-10-22T02:20:04.448Z,14.95
2022-10-22T02:21:04.918Z,14.96
2022-10-22T02:22:04.451Z,14.98
2022-10-22T02:23:04.431Z,15.01
2022-10-22T02:24:04.435Z,14.99
2022-10-22T02:25:04.446Z,14.98
2022-10-22T02:26:04.443Z,14.95
2022-10-22T02:27:04.480Z,14.94
2022-10-22T02:28:04.446Z,14.92
2022-10-22T02:29:04.450Z,14.92
2022-10-22T02:30:04.510Z,14.91
2022-10-22T02:31:04.446Z,14.96
2022-10-22T02:32:04.452Z,14.94
2022-10-22T02:33:04.453Z,14.92
2022-10-22T02:34:04.459Z,14.84
2022-10-22T02:35:04.442Z,14.92
2022-10-22T02:36:04.461Z,14.91
2022-10-22T02:37:04.454Z,14.86
2022-10-22T02:38:04.436Z,14.88
2022-10-22T02:39:04.499Z,14.92
2022-10-22T02:40:04.454Z,14.94
2022-10-22T02:41:04.435Z,14.83
2022-10-22T02:42:04.453Z,14.81
2022-10-22T02:43:04.454Z,14.83
2022-10-22T02:44:04.456Z,14.94
2022-10-22T02:45:04.465Z,14.95
2022-10-22T02:46:04.457Z,14.86
2022-10-22T02:47:04.441Z,14.86
2022-10-22T02:48:04.455Z,14.91
2022-10-22T02:49:04.473Z,14.83
2022-10-22T02:50:06.647Z,14.92
2022-10-22T02:51:04.452Z,14.86
2022-10-22T02:52:04.512Z,14.81
2022-10-22T02:53:04.463Z,14.86
2022-10-22T02:54:04.458Z,14.83
2022-10-22T02:55:04.465Z,14.86
2022-10-22T02:56:04.441Z,14.86
2022-10-22T02:57:04.462Z,14.78
2022-10-22T02:58:04.476Z,14.81
2022-10-22T02:59:04.449Z,14.86
2022-10-22T03:00:04.454Z,14.81
2022-10-22T03:01:04.535Z,14.94
2022-10-22T03:02:04.474Z,14.92
2022-10-22T03:03:04.464Z,14.80
2022-10-22T03:04:04.456Z,14.78
2022-10-22T03:05:04.475Z,14.86
2022-10-22T03:06:04.451Z,14.84
2022-10-22T03:07:04.450Z,14.81
2022-10-22T03:08:04.458Z,14.88
2022-10-22T03:09:04.534Z,14.86
2022-10-22T03:10:04.460Z,14.81
2022-10-22T03:11:04.513Z,14.91
2022-10-22T03:12:04.481Z,14.84
2022-10-22T03:13:04.489Z,14.78
2022-10-22T03:14:04.457Z,14.92
2022-10-22T03:15:04.454Z,14.84
2022-10-22T03:16:04.461Z,14.81
2022-10-22T03:17:04.476Z,14.94
2022-10-22T03:18:04.451Z,14.80
2022-10-22T03:19:04.481Z,14.80
2022-10-22T03:20:04.465Z,14.84
2022-10-22T03:21:04.471Z,14.94
2022-10-22T03:22:04.469Z,14.84
2022-10-22T03:23:04.465Z,14.91
2022-10-22T03:24:04.463Z,14.91
2022-10-22T03:25:04.464Z,14.86
2022-10-22T03:26:04.457Z,14.86
2022-10-22T03:27:04.459Z,14.91
2022-10-22T03:28:04.474Z,14.84
2022-10-22T03:29:04.484Z,14.86
2022-10-22T03:30:04.466Z,14.89
2022-10-22T03:31:04.458Z,14.86
2022-10-22T03:32:04.460Z,14.88
2022-10-22T03:33:04.445Z,14.83
2022-10-22T03:34:04.454Z,14.81
2022-10-22T03:35:04.593Z,14.84
2022-10-22T03:36:04.470Z,14.81
2022-10-22T03:37:04.455Z,14.81
2022-10-22T03:38:04.467Z,14.89
2022-10-22T03:39:04.469Z,14.88
2022-10-22T03:40:04.475Z,14.77
2022-10-22T03:41:04.469Z,14.80
2022-10-22T03:42:04.453Z,14.81
2022-10-22T03:43:04.470Z,14.75
2022-10-22T03:44:04.482Z,14.75
2022-10-22T03:45:04.460Z,14.80
2022-10-22T03:46:04.465Z,14.80
2022-10-22T03:47:04.460Z,14.78
2022-10-22T03:48:04.469Z,14.75
2022-10-22T03:49:04.475Z,14.77
2022-10-22T03:50:04.464Z,14.73
2022-10-22T03:51:04.463Z,14.80
2022-10-22T03:52:04.468Z,14.81
2022-10-22T03:53:04.474Z,14.75
2022-10-22T03:54:04.466Z,14.73
2022-10-22T03:55:04.481Z,14.81
2022-10-22T03:56:04.468Z,14.80
2022-10-22T03:57:04.464Z,14.78
2022-10-22T03:58:04.465Z,14.75
2022-10-22T03:59:04.497Z,14.77
2022-10-22T04:00:04.467Z,14.78
2022-10-22T04:01:04.590Z,14.80
2022-10-22T04:02:04.475Z,14.78
2022-10-22T04:03:04.468Z,14.84
2022-10-22T04:04:04.469Z,14.80
2022-10-22T04:05:04.530Z,14.73
2022-10-22T04:06:04.453Z,14.73
2022-10-22T04:07:04.469Z,14.75
2022-10-22T04:08:04.465Z,14.69
2022-10-22T04:09:04.516Z,14.70
2022-10-22T04:10:04.453Z,14.68
2022-10-22T04:11:04.487Z,14.65
2022-10-22T04:12:12.958Z,14.73
2022-10-22T04:13:04.471Z,14.65
2022-10-22T04:14:04.470Z,14.73
2022-10-22T04:15:04.476Z,14.72
2022-10-22T04:16:04.490Z,14.72
2022-10-22T04:17:04.470Z,14.68
2022-10-22T04:18:04.468Z,14.70
2022-10-22T04:19:04.468Z,14.73
2022-10-22T04:20:04.489Z,14.73
2022-10-22T04:21:04.455Z,14.77
2022-10-22T04:22:04.472Z,14.75
2022-10-22T04:23:04.454Z,14.72
2022-10-22T04:24:04.470Z,14.72
2022-10-22T04:25:04.460Z,14.75
2022-10-22T04:26:04.473Z,14.65
2022-10-22T04:27:04.468Z,14.68
2022-10-22T04:28:04.480Z,14.57
2022-10-22T04:29:04.463Z,14.61
2022-10-22T04:30:04.482Z,14.62
2022-10-22T04:31:04.461Z,14.61
2022-10-22T04:32:04.504Z,14.64
2022-10-22T04:33:04.466Z,14.65
2022-10-22T04:34:04.467Z,14.62
2022-10-22T04:35:04.472Z,14.61
2022-10-22T04:36:04.473Z,14.61
2022-10-22T04:37:04.458Z,14.65
2022-10-22T04:38:04.461Z,14.69
2022-10-22T04:39:04.480Z,14.62
2022-10-22T04:40:04.540Z,14.68
2022-10-22T04:41:04.460Z,14.64
2022-10-22T04:42:04.472Z,14.68
2022-10-22T04:43:04.474Z,14.65
2022-10-22T04:44:04.486Z,14.64
2022-10-22T04:45:04.476Z,14.58
2022-10-22T04:46:04.465Z,14.77
2022-10-22T04:47:04.482Z,14.70
2022-10-22T04:48:04.477Z,14.73
2022-10-22T04:49:04.477Z,14.72
2022-10-22T04:50:04.483Z,14.60
2022-10-22T04:51:04.492Z,14.69
2022-10-22T04:52:04.471Z,14.70
2022-10-22T04:53:04.502Z,14.72
2022-10-22T04:54:04.477Z,14.69
2022-10-22T04:55:04.461Z,14.68
2022-10-22T04:56:04.483Z,14.64
2022-10-22T04:57:04.468Z,14.64
2022-10-22T04:58:04.479Z,14.61
2022-10-22T04:59:04.478Z,14.77
2022-10-22T05:00:04.465Z,14.69
2022-10-22T05:01:04.517Z,14.62
2022-10-22T05:02:04.472Z,14.75
2022-10-22T05:03:04.472Z,14.61
2022-10-22T05:04:04.460Z,14.62
2022-10-22T05:05:04.484Z,14.64
2022-10-22T05:06:04.516Z,14.65
2022-10-22T05:07:04.463Z,14.62
2022-10-22T05:08:04.474Z,14.61
2022-10-22T05:09:04.540Z,14.70
2022-10-22T05:10:04.481Z,14.57
2022-10-22T05:11:04.473Z,14.65
2022-10-22T05:12:04.477Z,14.61
2022-10-22T05:13:04.722Z,14.57
2022-10-22T05:14:04.482Z,14.61
2022-10-22T05:15:04.464Z,14.64
2022-10-22T05:16:04.487Z,14.64
2022-10-22T05:17:04.469Z,14.65
2022-10-22T05:18:04.486Z,14.61
2022-10-22T05:19:04.481Z,14.61
2022-10-22T05:20:04.472Z,14.58
2022-10-22T05:21:04.479Z,14.62
2022-10-22T05:22:04.494Z,14.47
2022-10-22T05:23:04.488Z,14.57
2022-10-22T05:24:04.474Z,14.47
2022-10-22T05:25:04.461Z,14.61
2022-10-22T05:26:04.466Z,14.51
2022-10-22T05:27:04.493Z,14.61
2022-10-22T05:28:04.493Z,14.58
2022-10-22T05:29:04.497Z,14.57
2022-10-22T05:30:04.465Z,14.54
2022-10-22T05:31:04.464Z,14.50
2022-10-22T05:32:04.526Z,14.52
2022-10-22T05:33:04.484Z,14.40
2022-10-22T05:34:04.465Z,14.52
2022-10-22T05:35:04.466Z,14.45
2022-10-22T05:36:04.466Z,14.42
2022-10-22T05:37:04.461Z,14.45
2022-10-22T05:38:04.509Z,14.45
2022-10-22T05:39:04.521Z,14.43
2022-10-22T05:40:19.035Z,14.42
2022-10-22T05:41:04.492Z,14.42
2022-10-22T05:42:04.479Z,14.42
2022-10-22T05:43:04.495Z,14.43
2022-10-22T05:44:04.497Z,14.43
2022-10-22T05:45:04.485Z,14.43
2022-10-22T05:46:04.486Z,14.42
2022-10-22T05:47:04.485Z,14.43
2022-10-22T05:48:04.504Z,14.43
2022-10-22T05:49:04.503Z,14.45
2022-10-22T05:50:04.481Z,14.43
2022-10-22T05:51:04.492Z,14.47
2022-10-22T05:52:04.464Z,14.43
2022-10-22T05:53:04.547Z,14.42
2022-10-22T05:54:04.492Z,14.46
2022-10-22T05:55:04.485Z,14.47
2022-10-22T05:56:04.482Z,14.42
2022-10-22T05:57:04.486Z,14.43
2022-10-22T05:58:04.471Z,14.46
2022-10-22T05:59:04.587Z,14.47
2022-10-22T06:00:04.501Z,14.43
2022-10-22T06:01:04.489Z,14.42
2022-10-22T06:02:04.523Z,14.43
2022-10-22T06:03:04.471Z,14.46
2022-10-22T06:04:04.475Z,14.40
2022-10-22T06:05:04.465Z,14.43
2022-10-22T06:06:04.513Z,14.50
2022-10-22T06:07:04.483Z,14.45
2022-10-22T06:08:04.465Z,14.45
2022-10-22T06:09:04.555Z,14.43
2022-10-22T06:10:04.467Z,14.43
2022-10-22T06:11:04.561Z,14.43
2022-10-22T06:12:04.467Z,14.43
2022-10-22T06:13:04.493Z,14.45
2022-10-22T06:14:04.475Z,14.40
2022-10-22T06:15:04.486Z,14.45
2022-10-22T06:16:04.467Z,14.43
2022-10-22T06:17:04.496Z,14.46
2022-10-22T06:18:04.499Z,14.43
2022-10-22T06:19:04.482Z,14.40
2022-10-22T06:21:04.471Z,14.40
2022-10-22T06:22:04.482Z,14.47
2022-10-22T06:23:04.473Z,14.50
2022-10-22T06:24:04.500Z,14.39
2022-10-22T06:25:04.469Z,14.45
2022-10-22T06:26:04.470Z,14.40
2022-10-22T06:27:04.462Z,14.43
2022-10-22T06:28:04.467Z,14.47
2022-10-22T06:29:04.493Z,14.46
2022-10-22T06:30:04.508Z,14.43
2022-10-22T06:31:04.462Z,14.43
2022-10-22T06:32:04.479Z,14.40
2022-10-22T06:33:04.494Z,14.43
2022-10-22T06:34:04.468Z,14.33
2022-10-22T06:35:04.480Z,14.40
2022-10-22T06:36:07.647Z,14.36
2022-10-22T06:37:04.468Z,14.46
2022-10-22T06:38:04.479Z,14.39
2022-10-22T06:39:04.566Z,14.36
2022-10-22T06:40:04.614Z,14.37
2022-10-22T06:41:04.465Z,14.35
2022-10-22T06:42:04.476Z,14.28
2022-10-22T06:43:04.486Z,14.37
2022-10-22T06:44:04.504Z,14.28
2022-10-22T06:45:04.490Z,14.28
2022-10-22T06:46:04.469Z,14.32
2022-10-22T06:47:04.464Z,14.27
2022-10-22T06:48:04.483Z,14.29
2022-10-22T06:49:04.465Z,14.28
2022-10-22T06:50:04.489Z,14.33
2022-10-22T06:51:04.483Z,14.32
2022-10-22T06:52:04.473Z,14.29
2022-10-22T06:53:04.480Z,14.32
2022-10-22T06:54:04.468Z,14.39
2022-10-22T06:55:04.493Z,14.40
2022-10-22T06:56:04.480Z,14.35
2022-10-22T06:57:04.501Z,14.36
2022-10-22T06:58:04.497Z,14.33
2022-10-22T06:59:04.487Z,14.35
2022-10-22T07:00:04.463Z,14.40
2022-10-22T07:01:04.563Z,14.39
2022-10-22T07:02:04.472Z,14.45
2022-10-22T07:03:04.514Z,14.45
2022-10-22T07:04:04.473Z,14.42
2022-10-22T07:05:04.479Z,14.45
2022-10-22T07:06:04.470Z,14.40
2022-10-22T07:07:04.515Z,14.47
2022-10-22T07:08:04.464Z,14.40
2022-10-22T07:09:04.569Z,14.35
2022-10-22T07:10:04.514Z,14.40
2022-10-22T07:11:04.462Z,14.36
2022-10-22T07:12:04.504Z,14.39
2022-10-22T07:13:04.486Z,14.42
2022-10-22T07:14:04.491Z,14.47
2022-10-22T07:15:04.482Z,14.43
2022-10-22T07:16:04.487Z,14.45
2022-10-22T07:17:04.484Z,14.54
2022-10-22T07:18:04.474Z,14.55
2022-10-22T07:19:04.473Z,14.61
2022-10-22T07:20:04.457Z,14.46
2022-10-22T07:21:04.462Z,14.61
2022-10-22T07:22:04.487Z,14.62
2022-10-22T07:23:04.462Z,14.58
2022-10-22T07:24:04.472Z,14.61
2022-10-22T07:25:07.313Z,14.60
2022-10-22T07:26:04.486Z,14.64
2022-10-22T07:27:07.025Z,14.58
2022-10-22T07:28:04.547Z,14.57
2022-10-22T07:29:04.470Z,14.61
2022-10-22T07:30:04.473Z,14.65
2022-10-22T07:31:04.469Z,14.64
2022-10-22T07:32:04.465Z,14.60
2022-10-22T07:33:04.494Z,14.62
2022-10-22T07:34:04.470Z,14.77
2022-10-22T07:35:04.472Z,14.72
2022-10-22T07:36:04.474Z,14.62
2022-10-22T07:37:04.471Z,14.65
2022-10-22T07:38:04.495Z,14.75
2022-10-22T07:39:04.493Z,14.68
2022-10-22T07:40:04.472Z,14.70
2022-10-22T07:41:04.482Z,14.72
2022-10-22T07:42:04.477Z,14.73
2022-10-22T07:43:04.489Z,14.73
2022-10-22T07:44:04.466Z,14.73
2022-10-22T07:45:04.472Z,14.80
2022-10-22T07:46:04.461Z,14.77
2022-10-22T07:47:04.461Z,14.83
2022-10-22T07:48:04.502Z,14.83
2022-10-22T07:49:04.463Z,14.86
2022-10-22T07:50:04.466Z,14.89
2022-10-22T07:51:04.465Z,14.81
2022-10-22T07:52:04.481Z,14.89
2022-10-22T07:53:04.486Z,14.98
2022-10-22T07:54:04.515Z,14.96
2022-10-22T07:55:04.471Z,15.01
2022-10-22T07:56:04.483Z,14.98
2022-10-22T07:57:04.476Z,14.94
2022-10-22T07:58:04.464Z,14.98
2022-10-22T07:59:04.492Z,14.98
2022-10-22T08:00:04.612Z,14.98
2022-10-22T08:01:04.541Z,15.10
2022-10-22T08:02:04.482Z,15.02
2022-10-22T08:03:04.469Z,15.06
2022-10-22T08:04:04.460Z,14.99
2022-10-22T08:05:04.495Z,15.10
2022-10-22T08:06:04.465Z,15.09
2022-10-22T08:07:04.494Z,15.09
2022-10-22T08:08:04.501Z,15.10
2022-10-22T08:09:04.521Z,15.10
2022-10-22T08:10:04.473Z,15.06
2022-10-22T08:11:04.490Z,15.13
2022-10-22T08:12:04.485Z,15.13
2022-10-22T08:13:04.463Z,15.16
2022-10-22T08:14:04.476Z,15.11
2022-10-22T08:15:04.482Z,15.19
2022-10-22T08:16:04.486Z,15.16
2022-10-22T08:17:04.491Z,15.20
2022-10-22T08:18:04.496Z,15.25
2022-10-22T08:19:04.479Z,15.25
2022-10-22T08:20:04.482Z,15.19
2022-10-22T08:21:04.471Z,15.21
2022-10-22T08:22:04.472Z,15.28
2022-10-22T08:23:04.493Z,15.20
2022-10-22T08:24:04.561Z,15.23
2022-10-22T08:25:04.547Z,15.28
2022-10-22T08:26:04.481Z,15.20
2022-10-22T08:27:04.509Z,15.20
2022-10-22T08:28:04.491Z,15.25
2022-10-22T08:29:04.520Z,15.34
2022-10-22T08:30:04.476Z,15.32
2022-10-22T08:31:04.475Z,15.20
2022-10-22T08:32:04.485Z,15.27
2022-10-22T08:33:04.486Z,15.39
2022-10-22T08:34:04.465Z,15.38
2022-10-22T08:35:04.469Z,15.29
2022-10-22T08:36:04.474Z,15.34
2022-10-22T08:37:04.481Z,15.38
2022-10-22T08:38:04.491Z,15.39
2022-10-22T08:39:04.492Z,15.41
2022-10-22T08:40:04.484Z,15.39
2022-10-22T08:41:04.485Z,15.46
2022-10-22T08:42:04.484Z,15.43
2022-10-22T08:43:04.488Z,15.43
2022-10-22T08:44:04.504Z,15.41
2022-10-22T08:45:04.473Z,15.39
2022-10-22T08:46:04.484Z,15.44
2022-10-22T08:47:04.470Z,15.49
2022-10-22T08:48:04.484Z,15.44
2022-10-22T08:49:04.563Z,15.50
2022-10-22T08:50:04.485Z,15.51
2022-10-22T08:51:04.485Z,15.57
2022-10-22T08:52:04.509Z,15.50
2022-10-22T08:53:04.498Z,15.56
2022-10-22T08:54:04.493Z,15.53
2022-10-22T08:55:04.481Z,15.56
2022-10-22T08:56:04.488Z,15.59
2022-10-22T08:57:04.497Z,15.67
2022-10-22T08:58:04.500Z,15.69
2022-10-22T08:59:04.480Z,15.67
2022-10-22T09:00:04.489Z,15.68
2022-10-22T09:01:04.486Z,15.71
2022-10-22T09:02:04.486Z,15.64
2022-10-22T09:03:04.502Z,15.72
2022-10-22T09:04:04.495Z,15.72
2022-10-22T09:05:06.710Z,15.82
2022-10-22T09:06:04.491Z,15.83
2022-10-22T09:07:04.521Z,15.82
2022-10-22T09:08:04.501Z,15.83
2022-10-22T09:09:04.628Z,15.92
2022-10-22T09:10:05.041Z,15.92
2022-10-22T09:11:04.560Z,15.86
2022-10-22T09:12:04.496Z,15.89
2022-10-22T09:13:04.505Z,15.92
2022-10-22T09:14:04.561Z,15.87
2022-10-22T09:15:04.487Z,15.86
2022-10-22T09:16:04.517Z,15.97
2022-10-22T09:17:04.501Z,15.97
2022-10-22T09:18:04.492Z,16.00
2022-10-22T09:19:04.498Z,16.01
2022-10-22T09:20:04.498Z,16.09
2022-10-22T09:21:04.552Z,16.01
2022-10-22T09:22:04.510Z,16.02
2022-10-22T09:23:04.500Z,16.04
2022-10-22T09:24:04.506Z,16.04
2022-10-22T09:25:04.506Z,16.01
2022-10-22T09:26:04.495Z,16.08
2022-10-22T09:27:04.500Z,16.04
2022-10-22T09:28:04.508Z,16.09
2022-10-22T09:29:04.513Z,16.11
2022-10-22T09:30:04.498Z,16.12
2022-10-22T09:31:04.605Z,16.24
2022-10-22T09:32:04.508Z,16.25
2022-10-22T09:33:04.505Z,16.20
2022-10-22T09:34:04.497Z,16.20
2022-10-22T09:35:04.507Z,16.30
2022-10-22T09:36:04.499Z,16.31
2022-10-22T09:37:04.514Z,16.24
2022-10-22T09:38:04.523Z,16.23
2022-10-22T09:39:04.584Z,16.27
2022-10-22T09:40:04.513Z,16.27
2022-10-22T09:41:04.575Z,16.33
2022-10-22T09:42:04.519Z,16.31
2022-10-22T09:43:04.505Z,16.28
2022-10-22T09:44:04.531Z,16.30
2022-10-22T09:45:04.523Z,16.33
2022-10-22T09:46:04.535Z,16.39
2022-10-22T09:47:04.528Z,16.31
2022-10-22T09:48:04.520Z,16.39
2022-10-22T09:49:04.514Z,16.38
2022-10-22T09:50:04.540Z,16.46
2022-10-22T09:51:04.513Z,16.45
2022-10-22T09:52:04.517Z,16.45
2022-10-22T09:53:04.521Z,16.56
2022-10-22T09:54:04.528Z,16.52
2022-10-22T09:55:04.536Z,16.50
2022-10-22T09:56:04.550Z,16.46
2022-10-22T09:57:04.532Z,16.58
2022-10-22T09:59:43.388Z,16.53
2022-10-22T10:00:36.607Z,16.56
2022-10-22T10:01:36.625Z,16.58
2022-10-22T10:02:38.142Z,16.68
2022-10-22T10:03:36.615Z,16.64
2022-10-22T10:04:36.610Z,16.64
2022-10-22T10:05:36.640Z,16.67
2022-10-22T10:06:36.615Z,16.58
2022-10-22T10:07:36.610Z,16.66
2022-10-22T10:08:36.662Z,16.66
2022-10-22T10:09:36.621Z,16.75
2022-10-22T10:10:36.654Z,16.73
2022-10-22T10:11:36.610Z,16.75
2022-10-22T10:14:26.358Z,16.76
2022-10-22T10:15:26.358Z,16.83
2022-10-22T10:16:26.373Z,16.86
2022-10-22T10:17:26.367Z,16.89
2022-10-22T10:18:26.349Z,16.82
2022-10-22T10:19:26.372Z,16.97
2022-10-22T10:20:26.400Z,16.85
2022-10-22T10:21:26.398Z,16.94
2022-10-22T10:22:26.372Z,16.94
2022-10-22T10:23:26.366Z,16.88
2022-10-22T10:24:26.376Z,16.93
2022-10-22T10:25:26.387Z,16.97
2022-10-22T10:26:26.367Z,16.98
2022-10-22T10:27:26.388Z,16.97
2022-10-22T10:28:26.368Z,16.88
2022-10-22T10:29:26.449Z,17.03
2022-10-22T10:30:26.381Z,16.93
2022-10-22T10:31:26.368Z,16.98
2022-10-22T10:32:26.537Z,17.06
2022-10-22T10:33:26.404Z,17.01
2022-10-22T10:34:26.386Z,17.01
2022-10-22T10:35:26.395Z,17.03
2022-10-22T10:36:26.403Z,17.04
2022-10-22T10:37:26.386Z,17.00
2022-10-22T10:38:28.870Z,17.01
2022-10-22T10:39:26.412Z,17.04
2022-10-22T10:40:26.420Z,17.04
2022-10-22T10:41:26.386Z,17.03
2022-10-22T10:42:26.383Z,17.07
2022-10-22T10:43:26.686Z,17.08
2022-10-22T10:44:26.406Z,17.07
2022-10-22T10:45:26.396Z,17.04
2022-10-22T10:46:26.423Z,17.07
2022-10-22T10:47:26.427Z,17.12
2022-10-22T10:48:26.422Z,17.16
2022-10-22T10:49:26.419Z,17.19
2022-10-22T10:50:26.417Z,17.14
2022-10-22T10:51:26.396Z,17.25
2022-10-22T10:52:26.487Z,17.31
2022-10-22T10:53:26.504Z,17.52
2022-10-22T10:54:26.556Z,17.52
2022-10-22T10:55:26.426Z,17.62
2022-10-22T10:56:26.398Z,17.78
2022-10-22T10:57:26.417Z,17.96
2022-10-22T10:58:26.426Z,18.20
2022-10-22T10:59:26.398Z,18.18
2022-10-22T11:00:26.435Z,18.33
2022-10-22T11:01:26.539Z,18.35
2022-10-22T11:02:26.521Z,18.33
2022-10-22T11:03:26.570Z,18.33
2022-10-22T11:04:26.482Z,18.52
2022-10-22T11:05:26.533Z,18.69
2022-10-22T11:06:26.541Z,18.73
2022-10-22T11:07:34.886Z,18.91
2022-10-22T11:08:28.080Z,19.21
2022-10-22T11:09:27.083Z,19.36
2022-10-22T11:10:26.586Z,19.54
2022-10-22T11:11:26.454Z,19.92
2022-10-22T11:12:26.430Z,20.10
2022-10-22T11:13:26.432Z,20.36
2022-10-22T11:14:27.914Z,20.77
2022-10-22T11:15:26.461Z,21.04
2022-10-22T11:16:29.093Z,20.97
2022-10-22T11:17:26.449Z,21.06
2022-10-22T11:18:26.478Z,21.21
2022-10-22T11:19:46.118Z,20.98
2022-10-22T11:20:26.448Z,20.84
2022-10-22T11:21:26.481Z,20.70
2022-10-22T11:22:27.024Z,20.58
2022-10-22T11:23:26.466Z,20.62
2022-10-22T11:24:26.488Z,20.76
2022-10-22T11:25:26.464Z,20.72
2022-10-22T11:26:26.482Z,20.69
2022-10-22T11:27:26.482Z,20.55
2022-10-22T11:28:26.490Z,20.57
2022-10-22T11:29:28.338Z,20.85
2022-10-22T11:30:26.489Z,20.97
2022-10-22T11:31:26.505Z,20.97
2022-10-22T11:32:26.499Z,20.97
2022-10-22T11:33:26.491Z,21.16
2022-10-22T11:34:33.753Z,21.29
2022-10-22T11:35:26.510Z,21.42
2022-10-22T11:36:26.567Z,21.44
2022-10-22T11:37:26.534Z,21.62
2022-10-22T11:38:26.521Z,21.96
2022-10-22T11:39:26.515Z,22.15
2022-10-22T11:40:26.528Z,22.37
2022-10-22T11:41:26.541Z,22.37
2022-10-22T11:42:26.559Z,22.54
2022-10-22T11:43:26.537Z,22.77
2022-10-22T11:44:26.527Z,22.86
2022-10-22T11:45:26.535Z,23.09
2022-10-22T11:46:26.528Z,23.02
2022-10-22T11:47:26.548Z,22.83
2022-10-22T11:48:26.569Z,22.95
2022-10-22T11:49:26.562Z,22.97
2022-10-22T11:50:26.548Z,22.72
2022-10-22T11:51:26.557Z,22.75
2022-10-22T11:52:26.570Z,22.68
2022-10-22T11:53:26.573Z,23.09
2022-10-22T11:54:26.558Z,23.27
2022-10-22T11:55:26.577Z,23.01
2022-10-22T11:56:26.577Z,23.10
2022-10-22T11:57:26.585Z,23.17
2022-10-22T11:58:26.603Z,23.00
2022-10-22T11:59:26.602Z,22.91
2022-10-22T12:00:26.590Z,22.88
2022-10-22T12:01:26.665Z,22.88
2022-10-22T12:02:26.591Z,22.82
2022-10-22T12:03:26.658Z,22.75
2022-10-22T12:04:26.681Z,22.75
2022-10-22T12:05:26.625Z,22.62
2022-10-22T12:06:26.656Z,22.67
2022-10-22T12:07:26.612Z,22.58
2022-10-22T12:08:27.110Z,22.61
2022-10-22T12:09:26.621Z,22.64
2022-10-22T12:10:26.713Z,22.60
2022-10-22T12:11:26.664Z,22.57
2022-10-22T12:12:26.650Z,22.52
2022-10-22T12:13:28.196Z,22.42
2022-10-22T12:14:26.698Z,22.43
2022-10-22T12:15:26.845Z,22.30
2022-10-22T12:16:32.437Z,22.18
2022-10-22T12:17:26.689Z,22.14
2022-10-22T12:18:26.736Z,22.07
2022-10-22T12:19:26.717Z,22.06
2022-10-22T12:20:26.725Z,22.03
2022-10-22T12:21:26.720Z,22.02
2022-10-22T12:22:26.665Z,22.07
2022-10-22T12:23:26.661Z,22.05
2022-10-22T12:24:26.709Z,22.06
2022-10-22T12:25:26.744Z,22.00
2022-10-22T12:26:26.724Z,21.92
2022-10-22T12:27:26.680Z,21.86
2022-10-22T12:28:26.672Z,21.92
2022-10-22T12:29:26.752Z,21.90
2022-10-22T12:30:26.696Z,21.91
2022-10-22T12:31:26.693Z,21.91
2022-10-22T12:32:26.730Z,21.98
2022-10-22T12:33:26.693Z,21.86
2022-10-22T12:34:26.696Z,22.03
2022-10-22T12:35:26.740Z,22.06
2022-10-22T12:36:26.759Z,22.10
2022-10-22T12:37:26.735Z,22.20
2022-10-22T12:38:26.727Z,22.21
2022-10-22T12:39:26.722Z,22.21
2022-10-22T12:40:26.741Z,22.21
2022-10-22T12:41:26.738Z,22.22
2022-10-22T12:42:26.729Z,22.28
2022-10-22T12:43:26.724Z,22.28
2022-10-22T12:44:26.743Z,22.31
2022-10-22T12:45:26.742Z,22.27
2022-10-22T12:46:26.779Z,22.20
2022-10-22T12:47:26.776Z,22.27
2022-10-22T12:48:26.740Z,22.31
2022-10-22T12:49:26.758Z,22.33
2022-10-22T12:50:26.759Z,22.24
2022-10-22T12:51:26.844Z,22.30
2022-10-22T12:52:26.758Z,22.28
2022-10-22T12:53:26.797Z,22.30
2022-10-22T12:54:26.800Z,22.30
2022-10-22T12:55:26.837Z,22.25
2022-10-22T12:56:26.792Z,22.33
2022-10-22T12:57:26.795Z,22.25
2022-10-22T12:58:26.804Z,22.21
2022-10-22T12:59:26.805Z,22.14